Time;durP1;ratioP1;P1;durP2;ratioP2;P2;SDS_P1;SDS_P2;PMS_P1;PMS_P2;Temp;Humidity;BMP_temperature;BMP_pressure;BME280_temperature;BME280_humidity;BME280_pressure;Samples;Min_cycle;Max_cycle;Signal;HPM_P1;HPM_P2
2022/05/02 00:00:28;;;;;;;3.22;1.38;;;;;;;-140.79;100.00;63287.88;5064084;28;20755;-52
2022/05/02 00:02:54;;;;;;;2.80;1.65;;;;;;;-140.79;100.00;63287.88;5047686;28;20025;-51
2022/05/02 00:05:19;;;;;;;2.13;1.45;;;;;;;-140.79;100.00;63287.88;5063441;28;20074;-51
2022/05/02 00:07:45;;;;;;;2.10;1.38;;;;;;;-140.79;100.00;63287.88;5062986;28;20029;-52
2022/05/02 00:10:11;;;;;;;2.40;1.67;;;;;;;-140.79;100.00;63287.88;5045916;28;20024;-52
2022/05/02 00:12:37;;;;;;;2.20;1.65;;;;;;;-140.79;100.00;63287.88;5065094;28;20025;-51
2022/05/02 00:15:03;;;;;;;1.98;1.50;;;;;;;-140.79;100.00;63287.88;5065650;28;20029;-53
2022/05/02 00:20:12;;;;;;;1.70;1.30;;;;;;;-140.79;100.00;63287.88;5064038;28;20035;-52
2022/05/02 00:22:38;;;;;;;2.38;1.55;;;;;;;-140.79;100.00;63287.88;5045288;28;20036;-51
2022/05/02 00:25:04;;;;;;;2.22;1.60;;;;;;;-140.79;100.00;63287.88;5063560;28;20046;-52
2022/05/02 00:27:30;;;;;;;2.15;1.40;;;;;;;-140.79;100.00;63287.88;5041922;28;20582;-52
2022/05/02 00:29:55;;;;;;;2.25;1.52;;;;;;;-140.79;100.00;63287.88;5042508;28;20032;-51
2022/05/02 00:32:20;;;;;;;2.72;1.70;;;;;;;-140.79;100.00;63287.88;5043386;28;20643;-52
2022/05/02 00:34:46;;;;;;;2.30;1.60;;;;;;;-140.79;100.00;63287.88;5044531;28;20435;-53
2022/05/02 00:37:14;;;;;;;2.17;1.40;;;;;;;-140.79;100.00;63287.88;5043491;28;20040;-53
2022/05/02 00:39:40;;;;;;;1.77;1.67;;;;;;;-140.79;100.00;63287.88;5042921;28;20578;-53
2022/05/02 00:42:06;;;;;;;2.88;1.90;;;;;;;-140.79;100.00;63287.88;5043479;28;20111;-52
2022/05/02 00:44:31;;;;;;;2.30;1.58;;;;;;;-140.79;100.00;63287.88;5043640;28;20021;-53
2022/05/02 00:46:57;;;;;;;1.95;1.45;;;;;;;-140.79;100.00;63287.88;5044027;28;20025;-54
2022/05/02 00:49:22;;;;;;;2.10;1.60;;;;;;;-140.79;100.00;63287.88;5043619;28;20039;-52
2022/05/02 00:51:48;;;;;;;2.33;1.70;;;;;;;-140.79;100.00;63287.88;5043574;28;20025;-52
2022/05/02 00:54:13;;;;;;;2.90;2.00;;;;;;;-140.79;100.00;63287.88;5043703;28;20774;-52
2022/05/02 00:56:39;;;;;;;1.80;1.20;;;;;;;-140.79;100.00;63287.88;5043849;28;20056;-52
2022/05/02 00:59:05;;;;;;;2.20;1.88;;;;;;;-140.79;100.00;63287.88;5043025;28;20043;-52
2022/05/02 01:01:30;;;;;;;1.77;1.50;;;;;;;-140.79;100.00;63287.88;5038258;28;20025;-51
2022/05/02 01:03:56;;;;;;;1.92;1.40;;;;;;;-140.79;100.00;63287.88;5017495;28;20031;-52
2022/05/02 01:09:05;;;;;;;2.00;1.73;;;;;;;-140.79;100.00;63287.88;5043575;28;20059;-52
2022/05/02 01:11:31;;;;;;;2.03;1.55;;;;;;;-140.79;100.00;63287.88;5043811;28;20499;-51
2022/05/02 01:13:57;;;;;;;2.72;1.73;;;;;;;-140.79;100.00;63287.88;5042791;28;20029;-52
2022/05/02 01:16:27;;;;;;;2.13;1.60;;;;;;;-140.79;100.00;63287.88;5042727;28;20025;-51
2022/05/02 01:18:57;;;;;;;2.33;1.65;;;;;;;-140.79;100.00;63287.88;5043048;28;20025;-51
2022/05/02 01:21:25;;;;;;;2.15;1.52;;;;;;;-140.79;100.00;63287.88;5043359;28;20028;-52
2022/05/02 01:23:57;;;;;;;2.72;1.88;;;;;;;-140.79;100.00;63287.88;5043743;28;20029;-52
2022/05/02 01:26:22;;;;;;;1.73;1.40;;;;;;;-140.79;100.00;63287.88;5052797;28;20139;-52
2022/05/02 01:28:51;;;;;;;1.77;1.60;;;;;;;-140.79;100.00;63287.88;5064336;28;20039;-53
2022/05/02 01:31:18;;;;;;;1.97;1.50;;;;;;;-140.79;100.00;63287.88;5064118;28;20021;-52
2022/05/02 01:33:43;;;;;;;1.88;1.55;;;;;;;-140.79;100.00;63287.88;5046050;28;20263;-52
2022/05/02 01:36:09;;;;;;;2.08;1.45;;;;;;;-140.79;100.00;63287.88;5064483;28;20415;-50
2022/05/02 01:38:35;;;;;;;1.85;1.60;;;;;;;-140.79;100.00;63287.88;5063250;28;20019;-52
2022/05/02 01:41:01;;;;;;;1.70;1.58;;;;;;;-140.79;100.00;63287.88;5065006;28;20059;-52
2022/05/02 01:43:27;;;;;;;1.77;1.60;;;;;;;-140.79;100.00;63287.88;5046413;28;20028;-52
2022/05/02 01:45:53;;;;;;;2.08;1.40;;;;;;;-140.79;100.00;63287.88;5064575;28;20028;-53
2022/05/02 01:48:18;;;;;;;2.67;1.70;;;;;;;-140.79;100.00;63287.88;5063530;28;20488;-53
2022/05/02 01:50:44;;;;;;;2.08;1.80;;;;;;;-140.79;100.00;63287.88;5064031;28;20495;-52
2022/05/02 01:53:09;;;;;;;1.98;1.70;;;;;;;-140.79;100.00;63287.88;5063304;28;20431;-51
2022/05/02 01:55:34;;;;;;;3.33;1.85;;;;;;;-140.79;100.00;63287.88;5063755;28;20094;-52
2022/05/02 01:58:00;;;;;;;2.10;1.75;;;;;;;-140.79;100.00;63287.88;5062795;28;20065;-52
2022/05/02 02:00:25;;;;;;;2.30;1.70;;;;;;;-140.79;100.00;63287.88;5063077;28;20040;-52
2022/05/02 02:02:51;;;;;;;1.70;1.30;;;;;;;-140.79;100.00;63287.88;5063631;28;20083;-53
2022/05/02 02:08:00;;;;;;;2.03;1.60;;;;;;;-140.79;100.00;63287.88;5062137;28;20127;-52
2022/05/02 02:10:25;;;;;;;1.80;1.52;;;;;;;-140.79;100.00;63287.88;5063360;28;20435;-52
2022/05/02 02:12:51;;;;;;;1.52;1.40;;;;;;;-140.79;100.00;63287.88;5063227;28;20479;-52
2022/05/02 02:15:16;;;;;;;2.38;1.77;;;;;;;-140.79;100.00;63287.88;5062660;28;20033;-53
2022/05/02 02:17:42;;;;;;;2.13;1.60;;;;;;;-140.79;100.00;63287.88;5063936;28;20024;-53
2022/05/02 02:20:08;;;;;;;2.47;1.60;;;;;;;-140.79;100.00;63287.88;5064089;28;20800;-52
2022/05/02 02:22:34;;;;;;;1.70;1.60;;;;;;;-140.79;100.00;63287.88;5063550;28;20060;-52
2022/05/02 02:25:00;;;;;;;1.98;1.70;;;;;;;-140.79;100.00;63287.88;5045777;28;20020;-52
2022/05/02 02:27:25;;;;;;;1.70;1.52;;;;;;;-140.79;100.00;63287.88;5064222;28;20045;-52
2022/05/02 02:29:51;;;;;;;2.05;1.60;;;;;;;-140.79;100.00;63287.88;5029106;28;20033;-52
2022/05/02 02:32:16;;;;;;;2.05;1.75;;;;;;;-140.79;100.00;63287.88;5044600;28;20082;-51
2022/05/02 02:34:42;;;;;;;1.70;1.60;;;;;;;-140.79;100.00;63287.88;5062664;28;20032;-53
2022/05/02 02:37:07;;;;;;;1.95;1.65;;;;;;;-140.79;100.00;63287.88;5060870;28;20581;-53
2022/05/02 02:39:33;;;;;;;2.22;1.60;;;;;;;-140.79;100.00;63287.88;5062664;28;20111;-53
2022/05/02 02:41:59;;;;;;;1.88;1.60;;;;;;;-140.79;100.00;63287.88;5060906;28;20041;-52
2022/05/02 02:44:24;;;;;;;2.42;1.63;;;;;;;-140.79;100.00;63287.88;5043131;28;20131;-52
2022/05/02 02:46:49;;;;;;;2.05;1.70;;;;;;;-140.79;100.00;63287.88;5064587;28;20412;-55
2022/05/02 02:49:15;;;;;;;1.77;1.40;;;;;;;-140.79;100.00;63287.88;5065079;28;20488;-52
2022/05/02 02:51:41;;;;;;;1.90;1.67;;;;;;;-140.79;100.00;63287.88;5065878;28;20056;-52
2022/05/02 02:54:06;;;;;;;2.22;1.80;;;;;;;-140.79;100.00;63287.88;5067118;28;20027;-53
2022/05/02 02:56:32;;;;;;;2.40;1.73;;;;;;;-140.79;100.00;63287.88;5065832;28;20117;-52
2022/05/02 02:58:58;;;;;;;1.85;1.60;;;;;;;-140.79;100.00;63287.88;5065663;28;20031;-52
2022/05/02 03:01:24;;;;;;;2.00;1.58;;;;;;;-140.79;100.00;63287.88;5065128;28;20015;-54
2022/05/02 03:03:49;;;;;;;2.13;1.85;;;;;;;-140.79;100.00;63287.88;5062759;28;20032;-52
2022/05/02 03:06:14;;;;;;;2.00;1.80;;;;;;;-140.79;100.00;63287.88;5040540;28;20626;-52
2022/05/02 03:08:41;;;;;;;2.70;1.67;;;;;;;-140.79;100.00;63287.88;5066251;28;20435;-52
2022/05/02 03:11:07;;;;;;;1.98;1.63;;;;;;;-140.79;100.00;63287.88;5048937;28;20392;-51
2022/05/02 03:13:34;;;;;;;1.88;1.60;;;;;;;-140.79;100.00;63287.88;5065407;28;20036;-52
2022/05/02 03:15:59;;;;;;;2.35;1.85;;;;;;;-140.79;100.00;63287.88;5047335;28;20029;-53
2022/05/02 03:18:25;;;;;;;2.22;1.50;;;;;;;-140.79;100.00;63287.88;5048432;28;20029;-52
2022/05/02 03:20:50;;;;;;;2.30;1.88;;;;;;;-140.79;100.00;63287.88;5066536;28;20028;-53
2022/05/02 03:23:16;;;;;;;3.53;1.80;;;;;;;-140.79;100.00;63287.88;5065951;28;20035;-52
2022/05/02 03:25:41;;;;;;;2.63;2.00;;;;;;;-140.79;100.00;63287.88;5066386;28;20048;-53
2022/05/02 03:28:07;;;;;;;2.28;1.85;;;;;;;-140.79;100.00;63287.88;5066901;28;20028;-53
2022/05/02 03:30:32;;;;;;;2.40;1.90;;;;;;;-140.79;100.00;63287.88;5065646;28;20047;-53
2022/05/02 03:32:58;;;;;;;2.10;1.70;;;;;;;-140.79;100.00;63287.88;5064301;28;20047;-51
2022/05/02 03:35:25;;;;;;;2.03;1.73;;;;;;;-140.79;100.00;63287.88;5067713;28;20028;-52
2022/05/02 03:37:50;;;;;;;2.50;1.90;;;;;;;-140.79;100.00;63287.88;5065977;28;20025;-52
2022/05/02 03:40:16;;;;;;;2.10;1.80;;;;;;;-140.79;100.00;63287.88;5066486;28;20032;-53
2022/05/02 03:42:41;;;;;;;2.50;1.85;;;;;;;-140.79;100.00;63287.88;5066190;28;20060;-52
2022/05/02 03:45:08;;;;;;;2.05;1.67;;;;;;;-140.79;100.00;63287.88;5065910;28;20484;-53
2022/05/02 03:47:35;;;;;;;2.10;1.70;;;;;;;-140.79;100.00;63287.88;5066276;28;20036;-59
2022/05/02 03:50:02;;;;;;;2.30;1.90;;;;;;;-140.79;100.00;63287.88;5067084;28;20054;-53
2022/05/02 03:52:28;;;;;;;1.90;1.65;;;;;;;-140.79;100.00;63287.88;5064681;28;20111;-52
2022/05/02 03:54:53;;;;;;;2.47;1.88;;;;;;;-140.79;100.00;63287.88;5064513;28;20491;-53
2022/05/02 03:57:19;;;;;;;2.33;1.98;;;;;;;-140.79;100.00;63287.88;5064137;28;20028;-53
2022/05/02 03:59:46;;;;;;;2.17;1.90;;;;;;;-140.79;100.00;63287.88;5062676;28;20029;-51
2022/05/02 04:02:12;;;;;;;2.33;1.60;;;;;;;-140.79;100.00;63287.88;5062398;28;20033;-52
2022/05/02 04:04:37;;;;;;;1.70;1.60;;;;;;;-140.79;100.00;63287.88;5059831;28;20023;-53
2022/05/02 04:07:03;;;;;;;1.90;1.60;;;;;;;-140.79;100.00;63287.88;5063270;28;20048;-52
2022/05/02 04:09:30;;;;;;;1.92;1.70;;;;;;;-140.79;100.00;63287.88;5063024;28;20020;-52
2022/05/02 04:11:57;;;;;;;2.05;1.70;;;;;;;-140.79;100.00;63287.88;5060320;28;20503;-53
2022/05/02 04:14:22;;;;;;;3.60;1.77;;;;;;;-140.79;100.00;63287.88;5062523;28;20120;-52
2022/05/02 04:16:49;;;;;;;2.13;1.80;;;;;;;-140.79;100.00;63287.88;5061103;28;20104;-52
2022/05/02 04:19:16;;;;;;;2.13;1.70;;;;;;;-140.79;100.00;63287.88;5063831;28;20029;-52
2022/05/02 04:21:41;;;;;;;1.73;1.48;;;;;;;-140.79;100.00;63287.88;5063959;28;20032;-52
2022/05/02 04:24:07;;;;;;;2.30;1.60;;;;;;;-140.79;100.00;63287.88;5063891;28;20410;-53
2022/05/02 04:26:33;;;;;;;2.53;1.65;;;;;;;-140.79;100.00;63287.88;5061506;28;20060;-52
2022/05/02 04:28:58;;;;;;;1.77;1.65;;;;;;;-140.79;100.00;63287.88;5064458;28;20025;-52
2022/05/02 04:31:24;;;;;;;2.20;1.70;;;;;;;-140.79;100.00;63287.88;5064012;28;20047;-53
2022/05/02 04:33:49;;;;;;;2.63;1.50;;;;;;;-140.79;100.00;63287.88;5063624;28;20077;-51
2022/05/02 04:36:15;;;;;;;1.90;1.58;;;;;;;-140.79;100.00;63287.88;5064936;28;20090;-53
2022/05/02 04:38:40;;;;;;;2.40;1.50;;;;;;;-140.79;100.00;63287.88;5046353;28;20404;-53
2022/05/02 04:41:06;;;;;;;2.28;1.92;;;;;;;-140.79;100.00;63287.88;5062655;28;20044;-53
2022/05/02 04:43:31;;;;;;;2.38;1.75;;;;;;;-140.79;100.00;63287.88;5062665;28;20036;-51
2022/05/02 04:45:57;;;;;;;3.55;1.85;;;;;;;-140.79;100.00;63287.88;5063481;28;20115;-52
2022/05/02 04:48:22;;;;;;;3.00;1.83;;;;;;;-140.79;100.00;63287.88;5064394;28;20028;-54
2022/05/02 04:50:48;;;;;;;3.80;1.80;;;;;;;-140.79;100.00;63287.88;5064998;28;20492;-52
2022/05/02 04:53:13;;;;;;;2.10;1.55;;;;;;;-140.79;100.00;63287.88;5042326;28;20032;-51
2022/05/02 04:55:39;;;;;;;4.45;2.15;;;;;;;-140.79;100.00;63287.88;5063264;28;20142;-53
2022/05/02 04:58:04;;;;;;;2.60;1.70;;;;;;;-140.79;100.00;63287.88;5064116;28;20047;-56
2022/05/02 05:00:30;;;;;;;2.92;1.77;;;;;;;-140.79;100.00;63287.88;5064631;28;20028;-53
2022/05/02 05:02:56;;;;;;;3.15;1.90;;;;;;;-140.79;100.00;63287.88;5046735;28;20036;-52
2022/05/02 05:05:21;;;;;;;2.03;1.70;;;;;;;-140.79;100.00;63287.88;5044321;28;20499;-54
2022/05/02 05:07:47;;;;;;;2.47;1.80;;;;;;;-140.79;100.00;63287.88;5045330;28;20017;-53
2022/05/02 05:10:12;;;;;;;2.78;1.70;;;;;;;-140.79;100.00;63287.88;5064463;28;20021;-52
2022/05/02 05:12:58;;;;;;;2.28;1.90;;;;;;;-140.79;100.00;63287.88;5064627;28;20032;-53
2022/05/02 05:19:23;;;;;;;2.08;1.63;;;;;;;-140.79;100.00;63287.88;5044498;28;20515;-53
2022/05/02 05:22:03;;;;;;;3.67;1.85;;;;;;;-140.79;100.00;63287.88;5018486;28;20037;-53
2022/05/02 05:24:40;;;;;;;4.40;1.98;;;;;;;-140.79;100.00;63287.88;5026586;28;20036;-52
2022/05/02 05:27:12;;;;;;;5.13;2.00;;;;;;;-140.79;100.00;63287.88;5055443;28;20037;-53
2022/05/02 05:30:03;;;;;;;1.85;1.50;;;;;;;-140.79;100.00;63287.88;5060903;28;20040;-53
2022/05/02 05:32:48;;;;;;;2.92;1.80;;;;;;;-140.79;100.00;63287.88;5048714;28;20052;-56
2022/05/02 05:35:24;;;;;;;4.60;1.70;;;;;;;-140.79;100.00;63287.88;5063058;28;20039;-57
2022/05/02 05:38:00;;;;;;;3.08;2.10;;;;;;;-140.79;100.00;63287.88;5062440;28;20029;-55
2022/05/02 05:40:42;;;;;;;4.22;2.50;;;;;;;-140.79;100.00;63287.88;5063124;28;20079;-53
2022/05/02 05:43:44;;;;;;;4.15;2.08;;;;;;;-140.79;100.00;63287.88;5063580;28;20535;-53
2022/05/02 05:46:37;;;;;;;3.63;1.80;;;;;;;-140.79;100.00;63287.88;5061389;28;20032;-54
2022/05/02 05:49:22;;;;;;;3.78;1.88;;;;;;;-140.79;100.00;63287.88;5057664;28;20086;-51
2022/05/02 05:51:52;;;;;;;2.65;2.00;;;;;;;-140.79;100.00;63287.88;5041864;28;20041;-54
2022/05/02 05:54:35;;;;;;;3.08;1.98;;;;;;;-140.79;100.00;63287.88;5058753;28;20040;-54
2022/05/02 05:57:32;;;;;;;2.72;1.88;;;;;;;-140.79;100.00;63287.88;5062366;28;20033;-52
2022/05/02 06:00:11;;;;;;;2.65;1.77;;;;;;;-140.79;100.00;63287.88;5057974;28;20027;-54
2022/05/02 06:02:55;;;;;;;3.05;2.08;;;;;;;-140.79;100.00;63287.88;5059951;28;20039;-53
2022/05/02 06:05:20;;;;;;;3.72;2.17;;;;;;;-140.79;100.00;63287.88;5059838;28;20651;-52
2022/05/02 06:07:49;;;;;;;2.80;2.10;;;;;;;-140.79;100.00;63287.88;5059989;28;20039;-52
2022/05/02 06:10:16;;;;;;;3.33;1.85;;;;;;;-140.79;100.00;63287.88;5044406;28;20056;-53
2022/05/02 06:12:42;;;;;;;2.40;2.15;;;;;;;-140.79;100.00;63287.88;5062042;28;20098;-54
2022/05/02 06:20:39;;;;;;;2.95;1.70;;;;;;;-140.79;100.00;63287.88;5045687;28;20446;-52
2022/05/02 06:23:15;;;;;;;2.17;1.98;;;;;;;-140.79;100.00;63287.88;5032235;28;20029;-55
2022/05/02 06:25:41;;;;;;;2.15;1.77;;;;;;;-140.79;100.00;63287.88;5031427;28;20040;-54
2022/05/02 06:28:07;;;;;;;3.08;2.30;;;;;;;-140.79;100.00;63287.88;5066107;28;21139;-53
2022/05/02 06:30:34;;;;;;;2.42;1.70;;;;;;;-140.79;100.00;63287.88;5064489;28;20032;-53
2022/05/02 06:33:01;;;;;;;2.95;1.90;;;;;;;-140.79;100.00;63287.88;5047254;28;20075;-52
2022/05/02 06:35:29;;;;;;;3.17;2.05;;;;;;;-140.79;100.00;63287.88;5047776;28;20157;-54
2022/05/02 06:38:03;;;;;;;2.47;1.80;;;;;;;-140.79;100.00;63287.88;5045658;28;20480;-54
2022/05/02 06:40:33;;;;;;;2.60;2.13;;;;;;;-140.79;100.00;63287.88;5063901;28;20267;-51
2022/05/02 06:43:33;;;;;;;3.13;2.13;;;;;;;-140.79;100.00;63287.88;5047627;28;20112;-53
2022/05/02 06:46:19;;;;;;;2.75;2.00;;;;;;;-140.79;100.00;63287.88;5044178;28;20055;-53
2022/05/02 06:48:55;;;;;;;2.42;2.15;;;;;;;-140.79;100.00;63287.88;5064798;28;20107;-55
2022/05/02 06:51:28;;;;;;;2.58;2.13;;;;;;;-140.79;100.00;63287.88;5065679;28;20033;-53
2022/05/02 06:54:24;;;;;;;3.03;2.00;;;;;;;-140.79;100.00;63287.88;5048011;28;20048;-53
2022/05/02 06:57:10;;;;;;;2.97;2.00;;;;;;;-140.79;100.00;63287.88;5052322;28;20126;-52
2022/05/02 06:59:39;;;;;;;3.20;2.03;;;;;;;-140.79;100.00;63287.88;5061999;28;20089;-54
2022/05/02 07:02:08;;;;;;;2.30;1.92;;;;;;;-140.79;100.00;63287.88;5046683;28;20021;-53
2022/05/02 07:04:55;;;;;;;2.88;1.88;;;;;;;-140.79;100.00;63287.88;5060980;28;20102;-53
2022/05/02 07:08:05;;;;;;;2.72;2.15;;;;;;;-140.79;100.00;63287.88;5046877;28;20078;-53
2022/05/02 07:10:37;;;;;;;3.53;2.20;;;;;;;-140.79;100.00;63287.88;4986886;28;20026;-52
2022/05/02 07:13:53;;;;;;;2.65;1.98;;;;;;;-140.79;100.00;63287.88;4967673;28;20026;-52
2022/05/02 07:16:23;;;;;;;2.40;2.00;;;;;;;-140.79;100.00;63287.88;5023658;28;20119;-52
2022/05/02 07:18:51;;;;;;;3.05;2.13;;;;;;;-140.79;100.00;63287.88;5047903;28;20028;-54
2022/05/02 07:21:28;;;;;;;3.33;2.40;;;;;;;-140.79;100.00;63287.88;5066467;28;20016;-52
2022/05/02 07:24:01;;;;;;;2.85;1.92;;;;;;;-140.79;100.00;63287.88;5066459;28;20036;-52
2022/05/02 07:26:27;;;;;;;2.80;2.40;;;;;;;-140.79;100.00;63287.88;5066755;28;20067;-53
2022/05/02 07:28:52;;;;;;;3.08;2.47;;;;;;;-140.79;100.00;63287.88;5066673;28;20560;-52
2022/05/02 07:31:20;;;;;;;3.13;2.58;;;;;;;-140.79;100.00;63287.88;5065184;28;20028;-51
2022/05/02 07:33:48;;;;;;;3.22;2.60;;;;;;;-140.79;100.00;63287.88;5065393;28;20127;-53
2022/05/02 07:36:15;;;;;;;4.40;2.80;;;;;;;-140.79;100.00;63287.88;5048245;28;20032;-53
2022/05/02 07:38:40;;;;;;;4.75;2.50;;;;;;;-140.79;100.00;63287.88;5061971;28;20103;-52
2022/05/02 07:41:22;;;;;;;3.80;2.85;;;;;;;-140.79;100.00;63287.88;5048063;28;20499;-53
2022/05/02 07:44:00;;;;;;;3.30;2.63;;;;;;;-140.79;100.00;63287.88;5065010;28;20079;-53
2022/05/02 07:46:47;;;;;;;3.20;2.45;;;;;;;-140.79;100.00;63287.88;5061437;28;20119;-53
2022/05/02 07:49:22;;;;;;;4.57;3.50;;;;;;;-140.79;100.00;63287.88;5063046;28;20048;-53
2022/05/02 07:51:50;;;;;;;5.63;3.22;;;;;;;-140.79;100.00;63287.88;5060968;28;20042;-53
2022/05/02 07:54:19;;;;;;;4.32;3.03;;;;;;;-140.79;100.00;63287.88;5061639;28;20036;-53
2022/05/02 07:56:48;;;;;;;3.60;3.00;;;;;;;-140.79;100.00;63287.88;5045013;28;20044;-53
2022/05/02 07:59:15;;;;;;;3.53;2.90;;;;;;;-140.79;100.00;63287.88;5062758;28;20442;-53
2022/05/02 08:01:40;;;;;;;4.00;3.30;;;;;;;-140.79;100.00;63287.88;5059666;28;20024;-54
2022/05/02 08:04:05;;;;;;;3.75;2.90;;;;;;;-140.79;100.00;63287.88;5062460;28;20377;-52
2022/05/02 08:06:49;;;;;;;4.00;3.20;;;;;;;-140.79;100.00;63287.88;5043161;28;20032;-53
2022/05/02 08:09:39;;;;;;;4.15;3.22;;;;;;;-140.79;100.00;63287.88;5062912;28;20066;-53
2022/05/02 08:12:07;;;;;;;3.40;3.00;;;;;;;-140.79;100.00;63287.88;5065687;28;20048;-52
2022/05/02 08:14:42;;;;;;;3.63;3.10;;;;;;;-140.79;100.00;63287.88;5064679;28;20025;-52
2022/05/02 08:17:37;;;;;;;3.80;3.15;;;;;;;-140.79;100.00;63287.88;5063759;28;20035;-53
2022/05/02 08:20:18;;;;;;;4.63;3.20;;;;;;;-140.79;100.00;63287.88;5049888;28;20028;-50
2022/05/02 08:28:59;;;;;;;3.65;3.25;;;;;;;-140.79;100.00;63287.88;5050397;28;20093;-51
2022/05/02 08:32:01;;;;;;;3.80;3.33;;;;;;;-140.79;100.00;63287.88;5047504;28;20030;-52
2022/05/02 08:34:32;;;;;;;3.97;3.08;;;;;;;-140.79;100.00;63287.88;5032857;28;20181;-52
2022/05/02 08:37:21;;;;;;;3.22;2.90;;;;;;;-140.79;100.00;63287.88;5064696;28;20049;-51
2022/05/02 08:40:10;;;;;;;4.10;3.45;;;;;;;-140.79;100.00;63287.88;5035099;28;20052;-52
2022/05/02 08:43:00;;;;;;;4.30;3.25;;;;;;;-140.79;100.00;63287.88;5049084;28;20078;-51
2022/05/02 08:45:41;;;;;;;4.10;3.55;;;;;;;-140.79;100.00;63287.88;5063331;28;20108;-52
2022/05/02 08:48:32;;;;;;;3.83;3.42;;;;;;;-140.79;100.00;63287.88;5063917;28;20039;-51
2022/05/02 08:51:18;;;;;;;4.78;3.33;;;;;;;-140.79;100.00;63287.88;5045709;28;20053;-53
2022/05/02 08:54:07;;;;;;;4.10;3.70;;;;;;;-140.79;100.00;63287.88;5063253;28;20748;-51
2022/05/02 08:56:45;;;;;;;4.25;3.60;;;;;;;-140.79;100.00;63287.88;5061819;28;20086;-51
2022/05/02 08:59:37;;;;;;;4.50;3.67;;;;;;;-140.79;100.00;63287.88;5045130;28;20028;-52
2022/05/02 09:02:40;;;;;;;4.60;3.70;;;;;;;-140.79;100.00;63287.88;5047965;28;20067;-52
2022/05/02 09:05:34;;;;;;;5.07;3.80;;;;;;;-140.79;100.00;63287.88;5061176;28;20393;-52
2022/05/02 09:08:06;;;;;;;4.63;3.70;;;;;;;-140.79;100.00;63287.88;5040186;28;20040;-53
2022/05/02 09:10:34;;;;;;;4.78;3.90;;;;;;;-140.79;100.00;63287.88;5063982;28;20029;-52
2022/05/02 09:13:54;;;;;;;5.38;4.03;;;;;;;-140.79;100.00;63287.88;5063769;28;20699;-53
2022/05/02 09:16:43;;;;;;;5.35;3.90;;;;;;;-140.79;100.00;63287.88;4970042;28;20042;-52
2022/05/02 09:19:47;;;;;;;4.45;3.95;;;;;;;-140.79;100.00;63287.88;5024848;28;20097;-52
2022/05/02 09:22:28;;;;;;;4.82;4.00;;;;;;;-140.79;100.00;63287.88;5055766;28;20480;-51
2022/05/02 09:25:05;;;;;;;4.40;3.95;;;;;;;-140.79;100.00;63287.88;5063137;28;20506;-52
2022/05/02 09:27:51;;;;;;;5.25;3.80;;;;;;;-140.79;100.00;63287.88;5046658;28;20060;-52
2022/05/02 09:30:33;;;;;;;4.30;3.90;;;;;;;-140.79;100.00;63287.88;5045435;28;20041;-52
2022/05/02 09:33:29;;;;;;;6.22;4.05;;;;;;;-140.79;100.00;63287.88;5062824;28;20051;-52
2022/05/02 09:36:02;;;;;;;6.07;4.72;;;;;;;-140.79;100.00;63287.88;5061710;28;20132;-52
2022/05/02 09:38:29;;;;;;;5.97;4.65;;;;;;;-140.79;100.00;63287.88;5046572;28;20024;-53
2022/05/02 09:41:12;;;;;;;6.30;4.47;;;;;;;-140.79;100.00;63287.88;5045638;28;20043;-52
2022/05/02 09:49:36;;;;;;;4.93;4.30;;;;;;;-140.79;100.00;63287.88;5048343;28;20127;-51
2022/05/02 09:52:14;;;;;;;6.35;4.32;;;;;;;-140.79;100.00;63287.88;5061661;28;20031;-52
2022/05/02 09:57:51;;;;;;;5.70;3.78;;;;;;;-140.79;100.00;63287.88;5053367;28;20043;-51
2022/05/02 10:03:24;;;;;;;6.45;4.10;;;;;;;-140.79;100.00;63287.88;5075375;28;20086;-51
2022/05/02 10:06:10;;;;;;;6.30;4.20;;;;;;;-140.79;100.00;63287.88;5067815;28;20131;-51
2022/05/02 10:08:52;;;;;;;5.07;4.13;;;;;;;-140.79;100.00;63287.88;5052784;28;20036;-50
2022/05/02 10:11:42;;;;;;;5.80;4.18;;;;;;;-140.79;100.00;63287.88;5050144;28;20032;-50
2022/05/02 10:14:22;;;;;;;7.85;4.03;;;;;;;-140.79;100.00;63287.88;5065721;28;20036;-51
2022/05/02 10:16:51;;;;;;;5.57;4.35;;;;;;;-140.79;100.00;63287.88;5050445;28;20028;-49
2022/05/02 10:19:26;;;;;;;;;;;;;;;-140.79;100.00;63287.88;5049175;28;20056;-51
2022/05/02 10:22:30;;;;;;;5.65;4.28;;;;;;;-140.79;100.00;63287.88;5064828;28;19949;-52
2022/05/02 10:25:02;;;;;;;5.43;3.95;;;;;;;-140.79;100.00;63287.88;5062833;28;20036;-51
2022/05/02 10:27:50;;;;;;;6.40;4.18;;;;;;;-140.79;100.00;63287.88;5065277;28;20040;-52
2022/05/02 10:30:15;;;;;;;5.03;4.00;;;;;;;-140.79;100.00;63287.88;5064516;28;20101;-50
2022/05/02 10:32:48;;;;;;;4.22;3.67;;;;;;;-140.79;100.00;63287.88;5031230;28;20032;-50
2022/05/02 10:35:14;;;;;;;4.85;4.00;;;;;;;-140.79;100.00;63287.88;5065233;28;20020;-52
2022/05/02 10:37:42;;;;;;;4.50;3.83;;;;;;;-140.79;100.00;63287.88;5065977;28;20025;-51
2022/05/02 10:40:13;;;;;;;5.60;3.80;;;;;;;-140.79;100.00;63287.88;5065874;28;20027;-50
2022/05/02 10:42:45;;;;;;;6.50;4.13;;;;;;;-140.79;100.00;63287.88;5065120;28;20822;-50
2022/05/02 10:45:11;;;;;;;5.75;3.85;;;;;;;-140.79;100.00;63287.88;5065983;28;20541;-51
2022/05/02 10:47:51;;;;;;;5.35;3.80;;;;;;;-140.79;100.00;63287.88;5065816;28;20032;-51
2022/05/02 10:50:26;;;;;;;6.00;3.72;;;;;;;-140.79;100.00;63287.88;5064161;28;20028;-50
2022/05/02 10:53:07;;;;;;;5.22;4.20;;;;;;;-140.79;100.00;63287.88;5066265;28;20090;-52
2022/05/02 10:55:34;;;;;;;4.53;3.90;;;;;;;-140.79;100.00;63287.88;5050575;28;20094;-51
2022/05/02 10:58:04;;;;;;;5.15;4.15;;;;;;;-140.79;100.00;63287.88;5048208;28;20028;-53
2022/05/02 11:00:29;;;;;;;4.60;3.67;;;;;;;-140.79;100.00;63287.88;5066200;28;20020;-52
2022/05/02 11:03:24;;;;;;;5.43;3.90;;;;;;;-140.79;100.00;63287.88;5065715;28;20384;-51
2022/05/02 11:06:09;;;;;;;5.00;4.20;;;;;;;-140.79;100.00;63287.88;5064397;28;20031;-52
2022/05/02 11:08:49;;;;;;;4.70;3.80;;;;;;;-140.79;100.00;63287.88;5063545;28;20064;-52
2022/05/02 11:11:48;;;;;;;4.10;3.70;;;;;;;-140.79;100.00;63287.88;5044893;28;20036;-52
2022/05/02 11:14:32;;;;;;;4.13;3.42;;;;;;;-140.79;100.00;63287.88;5046395;28;20038;-52
2022/05/02 11:17:21;;;;;;;4.57;4.10;;;;;;;-140.79;100.00;63287.88;5062531;28;20028;-51
2022/05/02 11:23:27;;;;;;;5.05;3.53;;;;;;;-140.79;100.00;63287.88;5064693;28;20034;-52
2022/05/02 11:26:02;;;;;;;6.40;4.00;;;;;;;-140.79;100.00;63287.88;5046870;28;20047;-50
2022/05/02 11:28:38;;;;;;;5.57;3.72;;;;;;;-140.79;100.00;63287.88;5045882;28;20062;-51
2022/05/02 11:31:19;;;;;;;5.38;3.72;;;;;;;-140.79;100.00;63287.88;5062587;28;20437;-51
2022/05/02 11:34:09;;;;;;;4.70;3.78;;;;;;;-140.79;100.00;63287.88;5045745;28;20040;-51
2022/05/02 11:36:42;;;;;;;4.80;3.80;;;;;;;-140.79;100.00;63287.88;5063447;28;20112;-52
2022/05/02 11:39:08;;;;;;;5.97;4.18;;;;;;;-140.79;100.00;63287.88;5063964;28;20089;-52
2022/05/02 11:41:33;;;;;;;6.50;3.80;;;;;;;-140.79;100.00;63287.88;5044108;28;20040;-50
2022/05/02 11:44:07;;;;;;;3.97;3.22;;;;;;;-140.79;100.00;63287.88;5064310;28;20024;-52
2022/05/02 11:46:32;;;;;;;4.97;3.67;;;;;;;-140.79;100.00;63287.88;5046972;28;20056;-50
2022/05/02 11:49:30;;;;;;;5.15;3.67;;;;;;;-140.79;100.00;63287.88;5029279;28;20075;-51
2022/05/02 11:51:58;;;;;;;4.20;3.55;;;;;;;-140.79;100.00;63287.88;5047139;28;20490;-50
2022/05/02 11:54:27;;;;;;;5.10;3.80;;;;;;;-140.79;100.00;63287.88;5060741;28;20043;-50
2022/05/02 11:56:59;;;;;;;5.72;4.00;;;;;;;-140.79;100.00;63287.88;5062635;28;20479;-51
2022/05/02 11:59:26;;;;;;;5.18;3.85;;;;;;;-140.79;100.00;63287.88;5060849;28;20267;-50
2022/05/02 12:02:01;;;;;;;5.05;3.33;;;;;;;-140.79;100.00;63287.88;4997218;28;20032;-50
2022/05/02 12:04:26;;;;;;;4.15;3.53;;;;;;;-140.79;100.00;63287.88;5028240;28;20126;-51
2022/05/02 12:07:04;;;;;;;4.20;3.40;;;;;;;-140.79;100.00;63287.88;5064480;28;20415;-51
2022/05/02 12:09:34;;;;;;;4.60;3.53;;;;;;;-140.79;100.00;63287.88;5030351;28;20045;-52
2022/05/02 12:12:04;;;;;;;5.00;3.83;;;;;;;-140.79;100.00;63287.88;5047153;28;20064;-53